sensor_id;sensor_type;location;lat;lon;timestamp;temperature;humidity
12769;DHT22;6448;48.916;8.990;2023-04-25T00:01:01;15.70;50.50
12769;DHT22;6448;48.916;8.990;2023-04-25T00:02:04;15.60;50.50
12769;DHT22;6448;48.916;8.990;2023-04-25T00:03:05;15.50;51.10
12769;DHT22;6448;48.916;8.990;2023-04-25T00:04:06;15.50;50.50
12769;DHT22;6448;48.916;8.990;2023-04-25T00:05:08;15.50;50.60
12769;DHT22;6448;48.916;8.990;2023-04-25T00:06:09;15.50;50.60
12769;DHT22;6448;48.916;8.990;2023-04-25T00:07:11;15.40;50.60
12769;DHT22;6448;48.916;8.990;2023-04-25T00:08:13;15.40;50.70
12769;DHT22;6448;48.916;8.990;2023-04-25T00:09:14;15.40;50.70
12769;DHT22;6448;48.916;8.990;2023-04-25T00:10:15;15.40;50.70
12769;DHT22;6448;48.916;8.990;2023-04-25T00:11:17;15.40;50.80
12769;DHT22;6448;48.916;8.990;2023-04-25T00:12:18;15.40;50.90
12769;DHT22;6448;48.916;8.990;2023-04-25T00:13:20;15.40;51.00
12769;DHT22;6448;48.916;8.990;2023-04-25T00:14:22;15.40;51.00
12769;DHT22;6448;48.916;8.990;2023-04-25T00:15:24;15.40;51.00
12769;DHT22;6448;48.916;8.990;2023-04-25T00:16:24;15.40;51.00
12769;DHT22;6448;48.916;8.990;2023-04-25T00:17:28;15.40;51.00
12769;DHT22;6448;48.916;8.990;2023-04-25T00:18:30;15.40;51.00
12769;DHT22;6448;48.916;8.990;2023-04-25T00:19:33;15.40;50.90
12769;DHT22;6448;48.916;8.990;2023-04-25T00:20:35;15.40;51.00
12769;DHT22;6448;48.916;8.990;2023-04-25T00:21:37;15.40;51.00
12769;DHT22;6448;48.916;8.990;2023-04-25T00:22:40;15.50;51.00
12769;DHT22;6448;48.916;8.990;2023-04-25T00:23:42;15.30;51.00
12769;DHT22;6448;48.916;8.990;2023-04-25T00:24:43;15.40;51.00
12769;DHT22;6448;48.916;8.990;2023-04-25T00:25:45;15.40;51.00
12769;DHT22;6448;48.916;8.990;2023-04-25T00:26:46;15.30;51.00
12769;DHT22;6448;48.916;8.990;2023-04-25T00:27:48;15.30;50.90
12769;DHT22;6448;48.916;8.990;2023-04-25T00:28:49;15.30;50.90
12769;DHT22;6448;48.916;8.990;2023-04-25T00:29:51;15.40;51.00
12769;DHT22;6448;48.916;8.990;2023-04-25T00:30:51;15.30;51.00
12769;DHT22;6448;48.916;8.990;2023-04-25T00:31:53;15.30;51.10
12769;DHT22;6448;48.916;8.990;2023-04-25T00:32:55;15.30;51.10
12769;DHT22;6448;48.916;8.990;2023-04-25T00:33:57;15.30;51.90
12769;DHT22;6448;48.916;8.990;2023-04-25T00:34:58;15.30;51.30
12769;DHT22;6448;48.916;8.990;2023-04-25T00:36:00;15.30;51.40
12769;DHT22;6448;48.916;8.990;2023-04-25T00:37:01;15.30;51.40
12769;DHT22;6448;48.916;8.990;2023-04-25T00:38:03;15.30;51.40
12769;DHT22;6448;48.916;8.990;2023-04-25T00:39:04;15.30;51.60
12769;DHT22;6448;48.916;8.990;2023-04-25T00:40:07;15.30;51.70
12769;DHT22;6448;48.916;8.990;2023-04-25T00:41:08;15.40;51.70
12769;DHT22;6448;48.916;8.990;2023-04-25T00:42:11;15.30;51.70
12769;DHT22;6448;48.916;8.990;2023-04-25T00:43:12;15.40;51.90
12769;DHT22;6448;48.916;8.990;2023-04-25T00:44:15;15.30;51.90
12769;DHT22;6448;48.916;8.990;2023-04-25T00:45:17;15.30;51.90
12769;DHT22;6448;48.916;8.990;2023-04-25T00:46:19;15.40;51.90
12769;DHT22;6448;48.916;8.990;2023-04-25T00:47:20;15.40;51.90
12769;DHT22;6448;48.916;8.990;2023-04-25T00:48:24;15.40;51.90
12769;DHT22;6448;48.916;8.990;2023-04-25T00:49:25;15.50;52.00
12769;DHT22;6448;48.916;8.990;2023-04-25T00:50:27;15.40;52.00
12769;DHT22;6448;48.916;8.990;2023-04-25T00:51:28;15.40;52.00
12769;DHT22;6448;48.916;8.990;2023-04-25T00:52:31;15.40;52.10
12769;DHT22;6448;48.916;8.990;2023-04-25T00:53:32;15.50;52.10
12769;DHT22;6448;48.916;8.990;2023-04-25T00:54:34;15.50;52.10
12769;DHT22;6448;48.916;8.990;2023-04-25T00:55:35;15.50;52.10
12769;DHT22;6448;48.916;8.990;2023-04-25T00:56:37;15.50;52.10
12769;DHT22;6448;48.916;8.990;2023-04-25T00:57:38;15.60;52.10
12769;DHT22;6448;48.916;8.990;2023-04-25T00:58:41;15.50;52.10
12769;DHT22;6448;48.916;8.990;2023-04-25T00:59:45;15.50;52.10
12769;DHT22;6448;48.916;8.990;2023-04-25T01:00:48;15.50;52.10
12769;DHT22;6448;48.916;8.990;2023-04-25T01:01:49;15.50;52.00
12769;DHT22;6448;48.916;8.990;2023-04-25T01:02:51;15.50;51.90
12769;DHT22;6448;48.916;8.990;2023-04-25T01:03:54;15.60;52.00
12769;DHT22;6448;48.916;8.990;2023-04-25T01:04:56;15.50;51.80
12769;DHT22;6448;48.916;8.990;2023-04-25T01:05:57;15.50;51.80
12769;DHT22;6448;48.916;8.990;2023-04-25T01:06:59;15.60;51.90
12769;DHT22;6448;48.916;8.990;2023-04-25T01:08:00;15.60;51.90
12769;DHT22;6448;48.916;8.990;2023-04-25T01:09:02;15.60;51.90
12769;DHT22;6448;48.916;8.990;2023-04-25T01:10:06;15.60;51.90
12769;DHT22;6448;48.916;8.990;2023-04-25T01:11:08;15.60;52.00
12769;DHT22;6448;48.916;8.990;2023-04-25T01:12:09;15.60;52.00
12769;DHT22;6448;48.916;8.990;2023-04-25T01:13:10;15.60;51.90
12769;DHT22;6448;48.916;8.990;2023-04-25T01:14:11;15.60;51.90
12769;DHT22;6448;48.916;8.990;2023-04-25T01:15:13;15.60;51.90
12769;DHT22;6448;48.916;8.990;2023-04-25T01:16:14;15.60;51.90
12769;DHT22;6448;48.916;8.990;2023-04-25T01:17:17;15.60;51.90
12769;DHT22;6448;48.916;8.990;2023-04-25T01:18:19;15.60;51.90
12769;DHT22;6448;48.916;8.990;2023-04-25T01:19:22;15.60;51.90
12769;DHT22;6448;48.916;8.990;2023-04-25T01:20:24;15.60;51.90
12769;DHT22;6448;48.916;8.990;2023-04-25T01:21:28;15.60;52.00
12769;DHT22;6448;48.916;8.990;2023-04-25T01:22:31;15.60;51.90
12769;DHT22;6448;48.916;8.990;2023-04-25T01:23:33;15.60;51.80
12769;DHT22;6448;48.916;8.990;2023-04-25T01:24:34;15.60;51.80
12769;DHT22;6448;48.916;8.990;2023-04-25T01:25:37;15.40;51.70
12769;DHT22;6448;48.916;8.990;2023-04-25T01:26:38;15.60;51.80
12769;DHT22;6448;48.916;8.990;2023-04-25T01:27:41;15.60;51.80
12769;DHT22;6448;48.916;8.990;2023-04-25T01:28:42;15.60;51.80
12769;DHT22;6448;48.916;8.990;2023-04-25T01:29:46;15.60;51.80
12769;DHT22;6448;48.916;8.990;2023-04-25T01:30:47;15.60;51.80
12769;DHT22;6448;48.916;8.990;2023-04-25T01:31:49;15.60;51.80
12769;DHT22;6448;48.916;8.990;2023-04-25T01:32:52;15.60;51.80
12769;DHT22;6448;48.916;8.990;2023-04-25T01:33:56;15.60;51.90
12769;DHT22;6448;48.916;8.990;2023-04-25T01:34:57;15.60;51.90
12769;DHT22;6448;48.916;8.990;2023-04-25T01:36:00;15.60;51.90
12769;DHT22;6448;48.916;8.990;2023-04-25T01:37:03;15.60;52.00
12769;DHT22;6448;48.916;8.990;2023-04-25T01:38:04;15.50;52.00
12769;DHT22;6448;48.916;8.990;2023-04-25T01:39:07;15.60;52.10
12769;DHT22;6448;48.916;8.990;2023-04-25T01:40:10;15.60;52.10
12769;DHT22;6448;48.916;8.990;2023-04-25T01:41:11;15.60;52.10
12769;DHT22;6448;48.916;8.990;2023-04-25T01:42:14;15.60;52.10
12769;DHT22;6448;48.916;8.990;2023-04-25T01:43:15;15.60;52.10
12769;DHT22;6448;48.916;8.990;2023-04-25T01:44:17;15.60;52.10
12769;DHT22;6448;48.916;8.990;2023-04-25T01:45:18;15.50;52.00
12769;DHT22;6448;48.916;8.990;2023-04-25T01:46:19;15.60;52.10
12769;DHT22;6448;48.916;8.990;2023-04-25T01:47:20;15.60;52.10
12769;DHT22;6448;48.916;8.990;2023-04-25T01:48:22;15.80;52.20
12769;DHT22;6448;48.916;8.990;2023-04-25T01:49:23;15.60;52.10
12769;DHT22;6448;48.916;8.990;2023-04-25T01:50:25;15.60;52.10
12769;DHT22;6448;48.916;8.990;2023-04-25T01:51:26;15.60;52.10
12769;DHT22;6448;48.916;8.990;2023-04-25T01:52:29;15.80;52.30
12769;DHT22;6448;48.916;8.990;2023-04-25T01:53:31;15.60;52.30
12769;DHT22;6448;48.916;8.990;2023-04-25T01:54:34;15.60;52.40
12769;DHT22;6448;48.916;8.990;2023-04-25T01:55:35;15.60;52.40
12769;DHT22;6448;48.916;8.990;2023-04-25T01:56:49;15.60;52.50
12769;DHT22;6448;48.916;8.990;2023-04-25T01:57:50;15.60;52.50
12769;DHT22;6448;48.916;8.990;2023-04-25T01:58:54;15.60;52.50
12769;DHT22;6448;48.916;8.990;2023-04-25T02:00:11;15.50;52.50
12769;DHT22;6448;48.916;8.990;2023-04-25T02:01:13;15.50;52.60
12769;DHT22;6448;48.916;8.990;2023-04-25T02:02:20;15.60;52.70
12769;DHT22;6448;48.916;8.990;2023-04-25T02:03:22;15.50;52.70
12769;DHT22;6448;48.916;8.990;2023-04-25T02:04:23;15.60;52.70
12769;DHT22;6448;48.916;8.990;2023-04-25T02:05:25;15.50;52.60
12769;DHT22;6448;48.916;8.990;2023-04-25T02:06:26;15.50;52.50
12769;DHT22;6448;48.916;8.990;2023-04-25T02:07:32;15.50;52.60
12769;DHT22;6448;48.916;8.990;2023-04-25T02:08:33;15.50;52.50
12769;DHT22;6448;48.916;8.990;2023-04-25T02:09:35;15.50;52.50
12769;DHT22;6448;48.916;8.990;2023-04-25T02:10:40;15.50;52.50
12769;DHT22;6448;48.916;8.990;2023-04-25T02:11:48;15.50;53.20
12769;DHT22;6448;48.916;8.990;2023-04-25T02:12:59;15.50;52.50
12769;DHT22;6448;48.916;8.990;2023-04-25T02:14:13;15.40;52.50
12769;DHT22;6448;48.916;8.990;2023-04-25T02:15:20;15.50;52.50
12769;DHT22;6448;48.916;8.990;2023-04-25T02:16:25;15.40;52.50
12769;DHT22;6448;48.916;8.990;2023-04-25T02:17:26;15.40;52.50
12769;DHT22;6448;48.916;8.990;2023-04-25T02:18:28;15.50;52.50
12769;DHT22;6448;48.916;8.990;2023-04-25T02:19:30;15.40;52.50
12769;DHT22;6448;48.916;8.990;2023-04-25T02:20:32;15.40;52.50
12769;DHT22;6448;48.916;8.990;2023-04-25T02:21:34;15.40;52.50
12769;DHT22;6448;48.916;8.990;2023-04-25T02:22:37;15.40;52.50
12769;DHT22;6448;48.916;8.990;2023-04-25T02:23:40;15.50;52.50
12769;DHT22;6448;48.916;8.990;2023-04-25T02:24:41;15.40;52.40
12769;DHT22;6448;48.916;8.990;2023-04-25T02:25:43;15.40;52.50
12769;DHT22;6448;48.916;8.990;2023-04-25T02:26:43;15.40;52.50
12769;DHT22;6448;48.916;8.990;2023-04-25T02:27:47;15.40;52.50
12769;DHT22;6448;48.916;8.990;2023-04-25T02:28:48;15.40;52.40
12769;DHT22;6448;48.916;8.990;2023-04-25T02:29:50;15.40;52.40
12769;DHT22;6448;48.916;8.990;2023-04-25T02:30:51;15.30;52.30
12769;DHT22;6448;48.916;8.990;2023-04-25T02:31:53;15.30;52.30
12769;DHT22;6448;48.916;8.990;2023-04-25T02:32:54;15.30;52.30
12769;DHT22;6448;48.916;8.990;2023-04-25T02:33:55;15.30;52.40
12769;DHT22;6448;48.916;8.990;2023-04-25T02:34:56;15.30;52.40
12769;DHT22;6448;48.916;8.990;2023-04-25T02:36:01;15.40;52.60
12769;DHT22;6448;48.916;8.990;2023-04-25T02:37:01;15.30;52.50
12769;DHT22;6448;48.916;8.990;2023-04-25T02:38:05;15.30;52.50
12769;DHT22;6448;48.916;8.990;2023-04-25T02:39:07;15.30;52.50
12769;DHT22;6448;48.916;8.990;2023-04-25T02:40:09;15.30;52.60
12769;DHT22;6448;48.916;8.990;2023-04-25T02:41:10;15.30;52.60
12769;DHT22;6448;48.916;8.990;2023-04-25T02:42:12;15.30;52.60
12769;DHT22;6448;48.916;8.990;2023-04-25T02:43:13;15.30;52.60
12769;DHT22;6448;48.916;8.990;2023-04-25T02:44:16;15.30;52.60
12769;DHT22;6448;48.916;8.990;2023-04-25T02:45:18;15.30;52.60
12769;DHT22;6448;48.916;8.990;2023-04-25T02:46:20;15.30;52.60
12769;DHT22;6448;48.916;8.990;2023-04-25T02:47:21;15.30;52.50
12769;DHT22;6448;48.916;8.990;2023-04-25T02:48:24;15.30;52.50
12769;DHT22;6448;48.916;8.990;2023-04-25T02:49:25;15.30;52.40
12769;DHT22;6448;48.916;8.990;2023-04-25T02:50:27;15.40;52.50
12769;DHT22;6448;48.916;8.990;2023-04-25T02:51:28;15.30;52.40
12769;DHT22;6448;48.916;8.990;2023-04-25T02:52:30;15.30;52.40
12769;DHT22;6448;48.916;8.990;2023-04-25T02:53:40;15.20;52.40
12769;DHT22;6448;48.916;8.990;2023-04-25T02:54:42;15.30;52.50
12769;DHT22;6448;48.916;8.990;2023-04-25T02:55:43;15.50;52.50
12769;DHT22;6448;48.916;8.990;2023-04-25T02:56:45;15.30;52.50
12769;DHT22;6448;48.916;8.990;2023-04-25T02:57:52;15.30;52.50
12769;DHT22;6448;48.916;8.990;2023-04-25T02:59:07;15.30;52.50
12769;DHT22;6448;48.916;8.990;2023-04-25T03:00:08;15.40;52.50
12769;DHT22;6448;48.916;8.990;2023-04-25T03:01:12;15.30;52.40
12769;DHT22;6448;48.916;8.990;2023-04-25T03:02:13;15.30;52.40
12769;DHT22;6448;48.916;8.990;2023-04-25T03:03:15;15.30;52.30
12769;DHT22;6448;48.916;8.990;2023-04-25T03:04:18;15.30;52.30
12769;DHT22;6448;48.916;8.990;2023-04-25T03:05:21;15.30;52.30
12769;DHT22;6448;48.916;8.990;2023-04-25T03:06:22;15.30;52.30
12769;DHT22;6448;48.916;8.990;2023-04-25T03:07:24;15.30;52.20
12769;DHT22;6448;48.916;8.990;2023-04-25T03:08:25;15.20;52.20
12769;DHT22;6448;48.916;8.990;2023-04-25T03:09:32;15.20;52.20
12769;DHT22;6448;48.916;8.990;2023-04-25T03:10:33;15.20;52.20
12769;DHT22;6448;48.916;8.990;2023-04-25T03:11:39;15.20;52.20
12769;DHT22;6448;48.916;8.990;2023-04-25T03:12:40;15.20;52.20
12769;DHT22;6448;48.916;8.990;2023-04-25T03:13:42;15.20;52.20
12769;DHT22;6448;48.916;8.990;2023-04-25T03:14:44;15.20;52.20
12769;DHT22;6448;48.916;8.990;2023-04-25T03:15:46;15.10;52.20
12769;DHT22;6448;48.916;8.990;2023-04-25T03:16:47;15.10;52.30
12769;DHT22;6448;48.916;8.990;2023-04-25T03:17:51;15.10;52.30
12769;DHT22;6448;48.916;8.990;2023-04-25T03:18:52;15.10;52.30
12769;DHT22;6448;48.916;8.990;2023-04-25T03:19:54;15.10;52.40
12769;DHT22;6448;48.916;8.990;2023-04-25T03:20:54;15.10;52.40
12769;DHT22;6448;48.916;8.990;2023-04-25T03:21:56;15.10;52.40
12769;DHT22;6448;48.916;8.990;2023-04-25T03:22:57;15.00;52.50
12769;DHT22;6448;48.916;8.990;2023-04-25T03:24:00;15.10;52.60
12769;DHT22;6448;48.916;8.990;2023-04-25T03:25:03;15.00;52.60
12769;DHT22;6448;48.916;8.990;2023-04-25T03:26:05;15.00;52.60
12769;DHT22;6448;48.916;8.990;2023-04-25T03:27:06;15.00;52.60
12769;DHT22;6448;48.916;8.990;2023-04-25T03:28:08;15.00;52.60
12769;DHT22;6448;48.916;8.990;2023-04-25T03:29:09;15.00;52.60
12769;DHT22;6448;48.916;8.990;2023-04-25T03:30:12;15.00;52.60
12769;DHT22;6448;48.916;8.990;2023-04-25T03:31:14;15.00;52.60
12769;DHT22;6448;48.916;8.990;2023-04-25T03:32:16;14.90;52.50
12769;DHT22;6448;48.916;8.990;2023-04-25T03:33:17;15.00;52.60
12769;DHT22;6448;48.916;8.990;2023-04-25T03:34:19;14.90;52.60
12769;DHT22;6448;48.916;8.990;2023-04-25T03:35:21;14.90;52.70
12769;DHT22;6448;48.916;8.990;2023-04-25T03:36:24;14.90;52.70
12769;DHT22;6448;48.916;8.990;2023-04-25T03:37:26;14.90;52.80
12769;DHT22;6448;48.916;8.990;2023-04-25T03:38:26;14.90;52.80
12769;DHT22;6448;48.916;8.990;2023-04-25T03:39:28;14.90;52.80
12769;DHT22;6448;48.916;8.990;2023-04-25T03:40:32;14.90;52.80
12769;DHT22;6448;48.916;8.990;2023-04-25T03:41:42;14.90;52.80
12769;DHT22;6448;48.916;8.990;2023-04-25T03:42:47;14.90;52.80
12769;DHT22;6448;48.916;8.990;2023-04-25T03:43:49;14.90;52.90
12769;DHT22;6448;48.916;8.990;2023-04-25T03:44:51;14.90;52.90
12769;DHT22;6448;48.916;8.990;2023-04-25T03:45:54;14.80;52.80
12769;DHT22;6448;48.916;8.990;2023-04-25T03:46:56;14.90;53.00
12769;DHT22;6448;48.916;8.990;2023-04-25T03:47:58;14.90;53.00
12769;DHT22;6448;48.916;8.990;2023-04-25T03:49:01;14.80;53.00
12769;DHT22;6448;48.916;8.990;2023-04-25T03:50:21;15.00;53.10
12769;DHT22;6448;48.916;8.990;2023-04-25T03:51:22;14.90;53.20
12769;DHT22;6448;48.916;8.990;2023-04-25T03:52:24;14.90;53.20
12769;DHT22;6448;48.916;8.990;2023-04-25T03:53:25;14.80;53.20
12769;DHT22;6448;48.916;8.990;2023-04-25T03:54:47;14.90;53.20
12769;DHT22;6448;48.916;8.990;2023-04-25T03:55:53;14.90;53.20
12769;DHT22;6448;48.916;8.990;2023-04-25T03:56:56;14.80;53.10
12769;DHT22;6448;48.916;8.990;2023-04-25T03:58:00;14.80;53.10
12769;DHT22;6448;48.916;8.990;2023-04-25T03:59:02;14.90;53.10
12769;DHT22;6448;48.916;8.990;2023-04-25T04:00:05;14.90;53.10
12769;DHT22;6448;48.916;8.990;2023-04-25T04:01:14;14.90;53.10
12769;DHT22;6448;48.916;8.990;2023-04-25T04:02:15;14.90;53.10
12769;DHT22;6448;48.916;8.990;2023-04-25T04:03:17;14.90;53.10
12769;DHT22;6448;48.916;8.990;2023-04-25T04:04:18;14.90;53.10
12769;DHT22;6448;48.916;8.990;2023-04-25T04:05:20;14.90;53.10
12769;DHT22;6448;48.916;8.990;2023-04-25T04:06:29;14.90;53.10
12769;DHT22;6448;48.916;8.990;2023-04-25T04:07:38;14.90;53.10
12769;DHT22;6448;48.916;8.990;2023-04-25T04:08:41;14.90;53.00
12769;DHT22;6448;48.916;8.990;2023-04-25T04:09:45;14.90;53.00
12769;DHT22;6448;48.916;8.990;2023-04-25T04:10:53;14.80;53.00
12769;DHT22;6448;48.916;8.990;2023-04-25T04:11:55;14.90;53.00
12769;DHT22;6448;48.916;8.990;2023-04-25T04:12:56;14.90;53.00
12769;DHT22;6448;48.916;8.990;2023-04-25T04:13:58;14.90;53.00
12769;DHT22;6448;48.916;8.990;2023-04-25T04:14:59;14.80;52.90
12769;DHT22;6448;48.916;8.990;2023-04-25T04:16:00;14.80;53.00
12769;DHT22;6448;48.916;8.990;2023-04-25T04:17:01;14.80;53.10
12769;DHT22;6448;48.916;8.990;2023-04-25T04:18:03;14.90;53.10
12769;DHT22;6448;48.916;8.990;2023-04-25T04:19:04;14.90;53.20
12769;DHT22;6448;48.916;8.990;2023-04-25T04:20:08;14.80;53.10
12769;DHT22;6448;48.916;8.990;2023-04-25T04:21:09;14.80;53.10
12769;DHT22;6448;48.916;8.990;2023-04-25T04:22:14;14.80;53.10
12769;DHT22;6448;48.916;8.990;2023-04-25T04:23:15;14.90;53.10
12769;DHT22;6448;48.916;8.990;2023-04-25T04:24:18;14.80;53.10
12769;DHT22;6448;48.916;8.990;2023-04-25T04:25:34;14.80;53.70
12769;DHT22;6448;48.916;8.990;2023-04-25T04:26:55;14.80;53.50
12769;DHT22;6448;48.916;8.990;2023-04-25T04:28:08;14.80;53.20
12769;DHT22;6448;48.916;8.990;2023-04-25T04:29:26;14.80;53.20
12769;DHT22;6448;48.916;8.990;2023-04-25T04:30:34;14.90;53.20
12769;DHT22;6448;48.916;8.990;2023-04-25T04:31:40;14.90;53.30
12769;DHT22;6448;48.916;8.990;2023-04-25T04:32:41;14.80;53.20
12769;DHT22;6448;48.916;8.990;2023-04-25T04:33:43;14.70;53.20
12769;DHT22;6448;48.916;8.990;2023-04-25T04:34:45;15.00;53.50
12769;DHT22;6448;48.916;8.990;2023-04-25T04:35:51;14.80;53.40
12769;DHT22;6448;48.916;8.990;2023-04-25T04:36:53;15.10;53.50
12769;DHT22;6448;48.916;8.990;2023-04-25T04:37:55;14.80;53.40
12769;DHT22;6448;48.916;8.990;2023-04-25T04:38:58;14.80;53.40
12769;DHT22;6448;48.916;8.990;2023-04-25T04:40:17;14.80;53.30
12769;DHT22;6448;48.916;8.990;2023-04-25T04:41:26;14.80;53.30
12769;DHT22;6448;48.916;8.990;2023-04-25T04:42:50;14.80;53.20
12769;DHT22;6448;48.916;8.990;2023-04-25T04:44:11;14.80;53.20
12769;DHT22;6448;48.916;8.990;2023-04-25T04:45:37;14.70;53.10
12769;DHT22;6448;48.916;8.990;2023-04-25T04:46:44;14.80;53.10
12769;DHT22;6448;48.916;8.990;2023-04-25T04:48:07;14.80;53.20
12769;DHT22;6448;48.916;8.990;2023-04-25T04:49:28;14.70;53.20
12769;DHT22;6448;48.916;8.990;2023-04-25T04:50:44;14.70;53.20
12769;DHT22;6448;48.916;8.990;2023-04-25T04:51:53;14.80;53.50
12769;DHT22;6448;48.916;8.990;2023-04-25T04:53:25;14.80;53.60
12769;DHT22;6448;48.916;8.990;2023-04-25T04:54:36;14.80;53.60
12769;DHT22;6448;48.916;8.990;2023-04-25T04:56:06;15.00;53.80
12769;DHT22;6448;48.916;8.990;2023-04-25T04:57:24;14.80;53.70
12769;DHT22;6448;48.916;8.990;2023-04-25T04:58:45;14.80;53.80
12769;DHT22;6448;48.916;8.990;2023-04-25T05:00:20;14.80;53.60
12769;DHT22;6448;48.916;8.990;2023-04-25T05:01:41;14.80;53.60
12769;DHT22;6448;48.916;8.990;2023-04-25T05:02:56;14.80;53.50
12769;DHT22;6448;48.916;8.990;2023-04-25T05:04:13;14.80;53.50
12769;DHT22;6448;48.916;8.990;2023-04-25T05:05:32;14.80;53.40
12769;DHT22;6448;48.916;8.990;2023-04-25T05:06:53;14.70;53.30
12769;DHT22;6448;48.916;8.990;2023-04-25T05:08:16;14.80;53.40
12769;DHT22;6448;48.916;8.990;2023-04-25T05:09:37;14.80;53.40
12769;DHT22;6448;48.916;8.990;2023-04-25T05:11:00;14.80;53.20
12769;DHT22;6448;48.916;8.990;2023-04-25T05:12:14;14.80;53.20
12769;DHT22;6448;48.916;8.990;2023-04-25T05:13:24;14.80;53.20
12769;DHT22;6448;48.916;8.990;2023-04-25T05:14:38;14.80;53.20
12769;DHT22;6448;48.916;8.990;2023-04-25T05:15:46;14.80;53.20
12769;DHT22;6448;48.916;8.990;2023-04-25T05:16:56;14.80;53.30
12769;DHT22;6448;48.916;8.990;2023-04-25T05:18:08;14.80;53.40
12769;DHT22;6448;48.916;8.990;2023-04-25T05:19:34;14.70;53.30
12769;DHT22;6448;48.916;8.990;2023-04-25T05:20:55;14.80;53.40
12769;DHT22;6448;48.916;8.990;2023-04-25T05:22:10;14.80;53.50
12769;DHT22;6448;48.916;8.990;2023-04-25T05:23:23;14.80;53.50
12769;DHT22;6448;48.916;8.990;2023-04-25T05:24:34;14.80;53.50
12769;DHT22;6448;48.916;8.990;2023-04-25T05:25:46;14.80;53.60
12769;DHT22;6448;48.916;8.990;2023-04-25T05:26:55;14.80;53.60
12769;DHT22;6448;48.916;8.990;2023-04-25T05:27:56;14.80;53.60
12769;DHT22;6448;48.916;8.990;2023-04-25T05:29:13;14.70;53.60
12769;DHT22;6448;48.916;8.990;2023-04-25T05:30:35;14.80;53.60
12769;DHT22;6448;48.916;8.990;2023-04-25T05:31:44;15.00;53.70
12769;DHT22;6448;48.916;8.990;2023-04-25T05:32:49;14.80;53.60
12769;DHT22;6448;48.916;8.990;2023-04-25T05:33:51;14.80;53.60
12769;DHT22;6448;48.916;8.990;2023-04-25T05:34:53;14.80;53.60
12769;DHT22;6448;48.916;8.990;2023-04-25T05:36:01;14.80;53.60
12769;DHT22;6448;48.916;8.990;2023-04-25T05:37:02;14.80;53.70
12769;DHT22;6448;48.916;8.990;2023-04-25T05:38:05;14.80;53.80
12769;DHT22;6448;48.916;8.990;2023-04-25T05:39:26;14.80;53.90
12769;DHT22;6448;48.916;8.990;2023-04-25T05:40:42;14.80;53.90
12769;DHT22;6448;48.916;8.990;2023-04-25T05:41:55;14.60;53.90
12769;DHT22;6448;48.916;8.990;2023-04-25T05:43:16;14.80;54.10
12769;DHT22;6448;48.916;8.990;2023-04-25T05:44:24;14.80;54.20
12769;DHT22;6448;48.916;8.990;2023-04-25T05:45:45;14.80;54.20
12769;DHT22;6448;48.916;8.990;2023-04-25T05:47:25;14.80;54.10
12769;DHT22;6448;48.916;8.990;2023-04-25T05:48:53;14.90;54.00
12769;DHT22;6448;48.916;8.990;2023-04-25T05:50:15;14.80;54.00
12769;DHT22;6448;48.916;8.990;2023-04-25T05:51:34;14.80;54.00
12769;DHT22;6448;48.916;8.990;2023-04-25T05:52:54;14.80;54.10
12769;DHT22;6448;48.916;8.990;2023-04-25T05:53:59;14.80;54.10
12769;DHT22;6448;48.916;8.990;2023-04-25T05:55:01;14.90;54.20
12769;DHT22;6448;48.916;8.990;2023-04-25T05:56:05;14.80;54.20
12769;DHT22;6448;48.916;8.990;2023-04-25T05:57:06;14.80;54.10
12769;DHT22;6448;48.916;8.990;2023-04-25T05:58:08;14.90;54.10
12769;DHT22;6448;48.916;8.990;2023-04-25T05:59:09;14.80;54.10
12769;DHT22;6448;48.916;8.990;2023-04-25T06:00:12;14.80;54.10
12769;DHT22;6448;48.916;8.990;2023-04-25T06:01:19;14.80;54.10
12769;DHT22;6448;48.916;8.990;2023-04-25T06:02:21;14.80;54.00
12769;DHT22;6448;48.916;8.990;2023-04-25T06:03:24;14.80;53.90
12769;DHT22;6448;48.916;8.990;2023-04-25T06:04:25;14.90;53.90
12769;DHT22;6448;48.916;8.990;2023-04-25T06:05:28;14.80;53.80
12769;DHT22;6448;48.916;8.990;2023-04-25T06:06:29;14.80;53.60
12769;DHT22;6448;48.916;8.990;2023-04-25T06:07:33;14.80;53.60
12769;DHT22;6448;48.916;8.990;2023-04-25T06:08:34;14.80;54.10
12769;DHT22;6448;48.916;8.990;2023-04-25T06:09:37;14.80;53.50
12769;DHT22;6448;48.916;8.990;2023-04-25T06:10:40;14.80;53.50
12769;DHT22;6448;48.916;8.990;2023-04-25T06:11:41;15.00;53.70
12769;DHT22;6448;48.916;8.990;2023-04-25T06:12:42;14.90;53.50
12769;DHT22;6448;48.916;8.990;2023-04-25T06:13:45;14.80;53.50
12769;DHT22;6448;48.916;8.990;2023-04-25T06:14:47;14.80;53.40
12769;DHT22;6448;48.916;8.990;2023-04-25T06:15:48;14.60;53.30
12769;DHT22;6448;48.916;8.990;2023-04-25T06:16:51;14.70;53.40
12769;DHT22;6448;48.916;8.990;2023-04-25T06:17:52;14.70;53.50
12769;DHT22;6448;48.916;8.990;2023-04-25T06:18:53;14.90;53.60
12769;DHT22;6448;48.916;8.990;2023-04-25T06:19:55;14.80;53.60
12769;DHT22;6448;48.916;8.990;2023-04-25T06:20:56;14.80;53.60
12769;DHT22;6448;48.916;8.990;2023-04-25T06:21:58;14.80;53.60
12769;DHT22;6448;48.916;8.990;2023-04-25T06:22:59;14.80;53.50
12769;DHT22;6448;48.916;8.990;2023-04-25T06:24:10;14.80;53.50
12769;DHT22;6448;48.916;8.990;2023-04-25T06:25:12;14.80;53.60
12769;DHT22;6448;48.916;8.990;2023-04-25T06:26:13;14.80;53.40
12769;DHT22;6448;48.916;8.990;2023-04-25T06:27:17;14.80;53.20
12769;DHT22;6448;48.916;8.990;2023-04-25T06:28:20;15.00;53.20
12769;DHT22;6448;48.916;8.990;2023-04-25T06:29:22;14.80;53.00
12769;DHT22;6448;48.916;8.990;2023-04-25T06:30:24;14.80;53.00
12769;DHT22;6448;48.916;8.990;2023-04-25T06:31:30;14.80;53.00
12769;DHT22;6448;48.916;8.990;2023-04-25T06:32:35;14.70;52.90
12769;DHT22;6448;48.916;8.990;2023-04-25T06:33:36;14.80;52.80
12769;DHT22;6448;48.916;8.990;2023-04-25T06:34:38;14.80;52.60
12769;DHT22;6448;48.916;8.990;2023-04-25T06:35:40;14.80;52.60
12769;DHT22;6448;48.916;8.990;2023-04-25T06:36:45;14.80;52.50
12769;DHT22;6448;48.916;8.990;2023-04-25T06:37:49;14.70;52.50
12769;DHT22;6448;48.916;8.990;2023-04-25T06:38:55;14.80;52.50
12769;DHT22;6448;48.916;8.990;2023-04-25T06:39:56;14.70;52.40
12769;DHT22;6448;48.916;8.990;2023-04-25T06:40:58;14.70;52.30
12769;DHT22;6448;48.916;8.990;2023-04-25T06:42:03;14.70;52.30
12769;DHT22;6448;48.916;8.990;2023-04-25T06:43:20;14.70;52.40
12769;DHT22;6448;48.916;8.990;2023-04-25T06:44:39;14.70;52.50
12769;DHT22;6448;48.916;8.990;2023-04-25T06:45:42;14.70;52.50
12769;DHT22;6448;48.916;8.990;2023-04-25T06:46:46;14.70;52.50
12769;DHT22;6448;48.916;8.990;2023-04-25T06:47:49;14.70;52.50
12769;DHT22;6448;48.916;8.990;2023-04-25T06:48:50;14.80;52.50
12769;DHT22;6448;48.916;8.990;2023-04-25T06:49:53;14.70;52.50
12769;DHT22;6448;48.916;8.990;2023-04-25T06:50:56;14.70;52.40
12769;DHT22;6448;48.916;8.990;2023-04-25T06:51:58;14.80;52.50
12769;DHT22;6448;48.916;8.990;2023-04-25T06:53:00;14.60;52.20
12769;DHT22;6448;48.916;8.990;2023-04-25T06:54:03;14.60;52.20
12769;DHT22;6448;48.916;8.990;2023-04-25T06:55:14;14.60;52.20
12769;DHT22;6448;48.916;8.990;2023-04-25T06:56:36;14.70;52.20
12769;DHT22;6448;48.916;8.990;2023-04-25T06:57:42;14.60;52.10